Search for airport 
image banner adimage banner adimage banner ad
image banner ad

6PN4 - Pocono Mountain

Located in Mount Pocono, United States

ICAO - 6PN4, IATA -

Data provided by Airmate  

General information

Coordinates: N41°5'21" W75°18'56"
Elevation is 1203 feet MSL.
 
View others Airports in Pennsylvania

Operational data

Special qualification required
Current time UTC:
Current local time:
Weather at : KMPO - Pocono Mountains Muni ( 8 km )
METAR: KMPO 071353Z AUTO 08008KT 10SM CLR 10/M03 A2990 RMK AO2 SLP131 T01001028
View NOTAMs / SUP AIP / TFR affecting this airport [VIEW]
Communications frequencies: [VIEW]

Runways:

Airport contact information

Address: Mount Pocono United States

Satellite view of 6PN4